Time;durP1;ratioP1;P1;durP2;ratioP2;P2;SDS_P1;SDS_P2;PMS_P1;PMS_P2;Temp;Humidity;BMP_temperature;BMP_pressure;BME280_temperature;BME280_humidity;BME280_pressure;Samples;Min_cycle;Max_cycle;Signal;HPM_P1;HPM_P2
2023/12/30 00:05:36;;;;;;;128.73;120.75;;;7.00;99.90;;;;;;12349233;28;20138;-88
2023/12/30 00:11:38;;;;;;;117.97;110.95;;;6.90;99.90;;;;;;12331936;28;20051;-86
2023/12/30 00:17:41;;;;;;;125.32;117.45;;;7.10;99.90;;;;;;12356078;28;20062;-88
2023/12/30 00:23:43;;;;;;;122.90;115.30;;;6.90;99.90;;;;;;12333957;28;20054;-90
2023/12/30 00:29:49;;;;;;;106.60;100.10;;;6.90;99.90;;;;;;12344690;28;20039;-89
2023/12/30 00:35:51;;;;;;;124.35;116.80;;;6.80;99.90;;;;;;12352732;28;20101;-86
2023/12/30 00:41:53;;;;;;;108.05;101.78;;;6.80;99.90;;;;;;12332980;28;20059;-86
2023/12/30 00:47:56;;;;;;;127.22;119.65;;;6.70;99.90;;;;;;12350068;28;20056;-87
2023/12/30 00:53:58;;;;;;;149.20;139.63;;;6.50;99.90;;;;;;12331304;28;20134;-88
2023/12/30 01:00:00;;;;;;;129.18;121.18;;;6.50;99.90;;;;;;12318468;28;20066;-89
2023/12/30 01:06:02;;;;;;;138.45;129.85;;;6.50;99.90;;;;;;12323471;28;20066;-88
2023/12/30 01:12:04;;;;;;;126.97;118.82;;;6.50;99.90;;;;;;12344301;28;20054;-86
2023/12/30 01:18:06;;;;;;;135.18;126.55;;;6.50;99.90;;;;;;12343175;28;20062;-88
2023/12/30 01:24:10;;;;;;;134.38;125.55;;;6.60;99.90;;;;;;12340424;28;20046;-87
2023/12/30 01:30:12;;;;;;;131.15;122.75;;;6.60;99.90;;;;;;12339425;28;20051;-88
2023/12/30 01:36:14;;;;;;;128.70;120.53;;;6.60;99.90;;;;;;12335062;28;20050;-88
2023/12/30 01:42:16;;;;;;;124.75;116.85;;;6.60;99.90;;;;;;12334091;28;20153;-88
2023/12/30 01:48:20;;;;;;;123.38;115.47;;;6.60;99.90;;;;;;12341352;28;20140;-87
2023/12/30 01:54:22;;;;;;;135.40;126.40;;;6.70;99.90;;;;;;12339072;28;20047;-87
2023/12/30 02:00:26;;;;;;;126.47;118.32;;;6.50;99.90;;;;;;12336220;28;20047;-86
2023/12/30 02:06:28;;;;;;;139.40;130.07;;;6.60;99.90;;;;;;12333607;28;20120;-87
2023/12/30 02:12:30;;;;;;;133.73;124.82;;;6.40;99.90;;;;;;12333217;28;20058;-86
2023/12/30 02:18:32;;;;;;;139.95;130.75;;;6.40;99.90;;;;;;12363600;28;20490;-86
2023/12/30 02:24:34;;;;;;;137.73;128.65;;;6.30;99.90;;;;;;12334067;28;20076;-85
2023/12/30 02:30:36;;;;;;;147.50;137.48;;;6.30;99.90;;;;;;12340161;28;20487;-85
2023/12/30 02:36:38;;;;;;;127.65;119.50;;;6.20;99.90;;;;;;12348175;28;20108;-85
2023/12/30 02:42:40;;;;;;;126.50;118.55;;;6.30;99.90;;;;;;12345795;28;20050;-88
2023/12/30 02:48:43;;;;;;;124.07;116.35;;;6.40;99.90;;;;;;12334894;28;20553;-86
2023/12/30 02:54:45;;;;;;;127.80;119.70;;;6.40;99.90;;;;;;12337344;28;20058;-85
2023/12/30 03:00:47;;;;;;;125.13;117.20;;;6.40;99.90;;;;;;12338813;28;20096;-85
2023/12/30 03:06:49;;;;;;;118.55;111.18;;;6.40;99.90;;;;;;12346809;28;20059;-87
2023/12/30 03:12:52;;;;;;;114.22;107.03;;;6.50;99.90;;;;;;12338281;28;20043;-88
2023/12/30 03:18:55;;;;;;;134.40;125.85;;;6.50;99.90;;;;;;12337462;28;20078;-86
2023/12/30 03:24:57;;;;;;;138.73;129.95;;;6.30;99.90;;;;;;12340213;28;20543;-86
2023/12/30 03:30:59;;;;;;;150.82;140.93;;;6.30;99.90;;;;;;12329971;28;20070;-88
2023/12/30 03:37:01;;;;;;;144.15;134.65;;;6.20;99.90;;;;;;12342952;28;20059;-87
2023/12/30 03:43:03;;;;;;;134.27;125.43;;;6.20;99.90;;;;;;12351182;28;20089;-87
2023/12/30 03:49:06;;;;;;;142.43;133.02;;;6.20;99.90;;;;;;12353509;28;20069;-86
2023/12/30 03:55:08;;;;;;;144.52;135.02;;;6.10;99.90;;;;;;12327975;28;20047;-87
2023/12/30 04:01:10;;;;;;;136.90;127.82;;;6.10;99.90;;;;;;12350490;28;20149;-87
2023/12/30 04:07:12;;;;;;;137.25;127.95;;;6.10;99.90;;;;;;12347650;28;20058;-87
2023/12/30 04:13:15;;;;;;;139.90;130.48;;;6.10;99.90;;;;;;12333033;28;20061;-87
2023/12/30 04:19:17;;;;;;;134.35;125.30;;;6.10;99.90;;;;;;12346902;28;20058;-88
2023/12/30 04:25:19;;;;;;;138.57;129.02;;;6.10;99.90;;;;;;12350652;28;20050;-87
2023/12/30 04:31:21;;;;;;;159.75;148.25;;;6.10;99.90;;;;;;12347481;28;20050;-87
2023/12/30 04:37:23;;;;;;;159.82;148.13;;;5.90;99.90;;;;;;12340759;28;20051;-88
2023/12/30 04:43:25;;;;;;;165.88;153.70;;;5.90;99.90;;;;;;12328287;28;20111;-88
2023/12/30 04:49:29;;;;;;;161.75;150.05;;;6.00;99.90;;;;;;12340310;28;20053;-89
2023/12/30 04:55:33;;;;;;;167.88;155.57;;;6.00;99.90;;;;;;12337959;28;20141;-87
2023/12/30 05:01:36;;;;;;;174.33;161.40;;;6.00;99.90;;;;;;12336292;28;20499;-86
2023/12/30 05:07:37;;;;;;;170.35;157.63;;;6.00;99.90;;;;;;12343122;28;20043;-89
2023/12/30 05:13:40;;;;;;;172.98;159.88;;;6.00;99.90;;;;;;12342005;28;20461;-88
2023/12/30 05:19:42;;;;;;;169.95;157.05;;;5.90;99.90;;;;;;12346500;28;20055;-88
2023/12/30 05:25:44;;;;;;;165.80;153.18;;;5.90;99.90;;;;;;12373279;28;20392;-89
2023/12/30 05:31:46;;;;;;;167.35;154.85;;;5.90;99.90;;;;;;12346897;28;20050;-86
2023/12/30 05:37:50;;;;;;;162.65;150.48;;;6.00;99.90;;;;;;12357113;28;20058;-87
2023/12/30 05:43:52;;;;;;;161.75;149.15;;;6.00;99.90;;;;;;12336099;28;20471;-86
2023/12/30 05:49:54;;;;;;;152.70;141.10;;;6.00;99.90;;;;;;12342819;28;20502;-87
2023/12/30 05:55:56;;;;;;;160.25;147.98;;;6.10;99.90;;;;;;12331905;28;20063;-87
2023/12/30 06:01:58;;;;;;;157.93;145.93;;;6.10;99.90;;;;;;12341424;28;20081;-86
2023/12/30 06:08:00;;;;;;;161.88;149.40;;;6.10;99.90;;;;;;12341287;28;20054;-88
2023/12/30 06:14:03;;;;;;;158.07;145.77;;;6.20;99.90;;;;;;12344163;28;20402;-87
2023/12/30 06:20:08;;;;;;;157.27;144.95;;;6.20;99.90;;;;;;12340251;28;20051;-87
2023/12/30 06:26:10;;;;;;;162.90;150.32;;;6.20;99.90;;;;;;12339989;28;20046;-86
2023/12/30 06:32:12;;;;;;;163.68;151.02;;;6.20;99.90;;;;;;12344850;28;20502;-87
2023/12/30 06:38:15;;;;;;;166.60;153.70;;;6.20;99.90;;;;;;12340540;28;20055;-87
2023/12/30 06:44:17;;;;;;;161.70;148.75;;;6.30;99.90;;;;;;12342129;28;20055;-87
2023/12/30 06:50:21;;;;;;;163.82;151.45;;;6.40;99.90;;;;;;12345968;28;20491;-88
2023/12/30 06:56:23;;;;;;;;;;;6.50;99.90;;;;;;12342597;28;20050;-88
2023/12/30 07:02:26;;;;;;;138.60;128.27;;;6.70;99.90;;;;;;12357176;28;20412;-89
2023/12/30 07:08:28;;;;;;;142.65;131.93;;;6.70;99.90;;;;;;12340670;28;20054;-88
2023/12/30 07:14:34;;;;;;;146.88;135.77;;;6.70;99.90;;;;;;12367917;28;20058;-87
2023/12/30 07:20:36;;;;;;;147.88;137.00;;;6.70;99.90;;;;;;12371416;28;20081;-87
2023/12/30 07:26:41;;;;;;;131.93;121.63;;;6.70;99.90;;;;;;12370261;28;20058;-88
2023/12/30 07:32:43;;;;;;;144.77;133.93;;;6.80;99.90;;;;;;12386739;22;20038;-35
2023/12/30 07:38:45;;;;;;;143.38;132.40;;;6.70;99.90;;;;;;12380614;28;20050;-45
2023/12/30 07:44:47;;;;;;;165.00;152.30;;;6.60;99.90;;;;;;12374783;28;20133;-36
2023/12/30 07:50:51;;;;;;;145.77;135.15;;;6.60;99.90;;;;;;12382289;28;20057;-35
2023/12/30 07:56:53;;;;;;;161.35;149.32;;;6.70;99.90;;;;;;12387827;28;20050;-36
2023/12/30 08:02:55;;;;;;;155.38;143.88;;;6.50;99.90;;;;;;12379698;28;20049;-36
2023/12/30 08:08:57;;;;;;;152.38;141.63;;;6.60;99.90;;;;;;12391834;28;20057;-36
2023/12/30 08:14:59;;;;;;;159.52;148.07;;;6.70;99.90;;;;;;12366762;22;20054;-36
2023/12/30 08:21:01;;;;;;;155.77;144.02;;;6.60;99.90;;;;;;12343469;28;20157;-35
2023/12/30 08:27:03;;;;;;;158.50;146.30;;;6.50;99.90;;;;;;12340328;28;20054;-35
2023/12/30 08:33:09;;;;;;;171.38;158.27;;;6.50;99.90;;;;;;12328758;28;20510;-36
2023/12/30 08:39:11;;;;;;;165.95;153.57;;;6.60;99.90;;;;;;12347145;28;20079;-37
2023/12/30 08:45:18;;;;;;;159.50;147.73;;;6.70;99.90;;;;;;12331609;28;20051;-36
2023/12/30 08:51:20;;;;;;;158.05;146.43;;;6.70;99.90;;;;;;12327560;28;20061;-36
2023/12/30 08:57:22;;;;;;;162.05;150.15;;;6.80;99.90;;;;;;12340045;28;20523;-35
2023/12/30 09:03:24;;;;;;;146.45;136.23;;;6.80;99.90;;;;;;12345331;28;20043;-36
2023/12/30 09:09:26;;;;;;;149.32;138.65;;;7.00;99.90;;;;;;12337014;28;20486;-36
2023/12/30 09:15:28;;;;;;;168.18;155.82;;;7.00;99.90;;;;;;12334942;28;20073;-36
2023/12/30 09:21:30;;;;;;;154.63;143.45;;;6.90;99.90;;;;;;12344662;28;20069;-36
2023/12/30 09:27:32;;;;;;;142.45;132.27;;;7.10;99.90;;;;;;12326755;28;20058;-36
2023/12/30 09:33:34;;;;;;;147.32;136.57;;;7.10;99.90;;;;;;12329662;28;20505;-36
2023/12/30 09:39:36;;;;;;;179.77;167.27;;;7.00;99.90;;;;;;12317425;28;20058;-36
2023/12/30 09:45:39;;;;;;;152.93;141.32;;;6.90;99.90;;;;;;12313957;28;20047;-35
2023/12/30 09:51:41;;;;;;;165.38;153.40;;;7.00;99.90;;;;;;12333913;28;20483;-37
2023/12/30 09:57:45;;;;;;;164.73;152.93;;;7.10;99.90;;;;;;12353306;28;20055;-36
2023/12/30 10:03:47;;;;;;;182.18;168.90;;;7.00;99.90;;;;;;12416127;22;20054;-81
2023/12/30 10:09:51;;;;;;;175.07;162.93;;;7.00;99.90;;;;;;12406735;28;20042;-82
2023/12/30 10:15:57;;;;;;;190.45;177.52;;;7.10;99.90;;;;;;12403639;28;20110;-81
2023/12/30 10:21:59;;;;;;;168.30;156.38;;;7.10;99.90;;;;;;12406785;28;20051;-82
2023/12/30 10:28:03;;;;;;;187.57;174.63;;;7.10;99.90;;;;;;12404958;28;20049;-84
2023/12/30 10:34:05;;;;;;;186.25;173.48;;;7.20;99.90;;;;;;12405127;28;20113;-81
2023/12/30 10:40:09;;;;;;;184.77;172.23;;;7.30;99.90;;;;;;12405111;28;20142;-81
2023/12/30 10:46:12;;;;;;;191.20;178.13;;;7.40;99.90;;;;;;12397169;28;20046;-82
2023/12/30 10:52:17;;;;;;;184.05;171.20;;;7.40;99.90;;;;;;12404743;28;20278;-82
2023/12/30 10:58:22;;;;;;;208.98;194.07;;;7.50;99.90;;;;;;12392216;28;20081;-82
2023/12/30 11:04:25;;;;;;;223.63;208.50;;;7.50;99.90;;;;;;12392517;28;20518;-82
2023/12/30 11:10:28;;;;;;;196.93;183.52;;;7.40;99.90;;;;;;12385335;28;20082;-82
2023/12/30 11:16:32;;;;;;;194.05;180.60;;;7.60;99.90;;;;;;12391535;28;20055;-82
2023/12/30 11:22:35;;;;;;;182.13;169.68;;;7.80;99.90;;;;;;12389531;28;20050;-84
2023/12/30 11:28:37;;;;;;;191.25;178.57;;;7.80;99.90;;;;;;12386337;28;20050;-84
2023/12/30 11:34:39;;;;;;;148.77;138.73;;;7.80;99.90;;;;;;12375628;28;20050;-83
2023/12/30 11:40:48;;;;;;;142.98;133.35;;;8.00;99.90;;;;;;12386804;28;20051;-82
2023/12/30 11:46:50;;;;;;;162.98;152.13;;;8.10;99.90;;;;;;12383695;28;20076;-83
2023/12/30 11:52:52;;;;;;;165.93;154.82;;;8.10;99.90;;;;;;12394345;28;20046;-82
2023/12/30 11:58:54;;;;;;;149.20;139.02;;;8.00;99.90;;;;;;12394747;28;20054;-83
2023/12/30 12:04:56;;;;;;;135.13;126.40;;;8.20;99.90;;;;;;12398205;28;20064;-81
2023/12/30 12:10:59;;;;;;;127.57;118.88;;;8.40;99.90;;;;;;12430061;28;20050;-82
2023/12/30 12:17:08;;;;;;;132.57;123.90;;;8.50;99.90;;;;;;12415072;28;20054;-81
2023/12/30 12:23:10;;;;;;;147.77;138.32;;;8.20;99.90;;;;;;12420091;28;20063;-83
2023/12/30 12:29:12;;;;;;;170.10;158.75;;;8.10;99.90;;;;;;12408875;28;20118;-81
2023/12/30 12:35:15;;;;;;;197.50;183.95;;;7.90;99.90;;;;;;12431399;28;20094;-83
2023/12/30 12:41:17;;;;;;;188.68;176.07;;;7.80;99.90;;;;;;12442453;28;20042;-82
2023/12/30 12:47:18;;;;;;;174.50;162.77;;;7.80;99.90;;;;;;12429161;28;20043;-84
2023/12/30 12:53:21;;;;;;;177.00;164.90;;;7.80;99.90;;;;;;12437411;28;20044;-82
2023/12/30 12:59:23;;;;;;;185.60;173.38;;;7.80;99.90;;;;;;12442261;28;20058;-81
2023/12/30 13:05:25;;;;;;;186.98;174.00;;;7.90;99.90;;;;;;12429920;28;20066;-82
2023/12/30 13:11:28;;;;;;;211.70;197.60;;;7.80;99.90;;;;;;12438991;28;20050;-82
2023/12/30 13:17:30;;;;;;;199.98;186.07;;;7.80;99.90;;;;;;12411616;28;20054;-87
2023/12/30 13:23:32;;;;;;;208.52;194.27;;;7.80;99.90;;;;;;12388352;28;20480;-87
2023/12/30 13:29:34;;;;;;;202.95;189.07;;;7.70;99.90;;;;;;12385856;28;20479;-88
2023/12/30 13:35:38;;;;;;;203.00;189.18;;;7.80;99.90;;;;;;12391685;28;20069;-86
2023/12/30 13:41:41;;;;;;;215.40;200.73;;;7.80;99.90;;;;;;12388379;28;20054;-87
2023/12/30 13:53:47;;;;;;;;;;;7.80;99.90;;;;;;12403178;28;20055;-87
2023/12/30 13:59:52;;;;;;;206.65;192.70;;;7.90;99.90;;;;;;12399211;28;19926;-86
2023/12/30 14:05:54;;;;;;;199.93;186.07;;;7.90;99.90;;;;;;12407469;28;20054;-87
2023/12/30 14:12:01;;;;;;;202.38;188.18;;;7.90;99.90;;;;;;12415658;28;20426;-84
2023/12/30 14:18:04;;;;;;;200.38;185.98;;;8.00;99.90;;;;;;12406201;28;20494;-87
2023/12/30 14:24:08;;;;;;;205.50;191.00;;;7.90;99.90;;;;;;12379653;28;20125;-80
2023/12/30 14:30:11;;;;;;;200.73;186.33;;;7.90;99.90;;;;;;12396460;28;20604;-80
2023/12/30 14:36:15;;;;;;;216.43;201.67;;;7.80;99.90;;;;;;12394171;28;20301;-81
2023/12/30 14:42:19;;;;;;;205.60;190.77;;;7.80;99.90;;;;;;12394945;28;20054;-81
2023/12/30 14:48:21;;;;;;;218.70;203.20;;;7.80;99.90;;;;;;12404286;28;20140;-81
2023/12/30 14:54:23;;;;;;;210.93;196.00;;;7.80;99.90;;;;;;12391205;28;20050;-81
2023/12/30 15:00:25;;;;;;;205.07;190.55;;;7.80;99.90;;;;;;12392341;28;20590;-83
2023/12/30 15:06:28;;;;;;;204.52;189.93;;;7.70;99.90;;;;;;12397930;28;20070;-81
2023/12/30 15:12:30;;;;;;;205.27;190.63;;;7.60;99.90;;;;;;12393628;28;20043;-81
2023/12/30 15:18:32;;;;;;;209.70;194.40;;;7.70;99.90;;;;;;12389329;28;20050;-81
2023/12/30 15:24:35;;;;;;;208.70;193.68;;;7.70;99.90;;;;;;12387332;28;20508;-81
2023/12/30 15:30:36;;;;;;;220.50;204.63;;;7.70;99.90;;;;;;12395588;28;20242;-81
2023/12/30 15:36:40;;;;;;;215.85;200.68;;;7.70;99.90;;;;;;12391509;28;20096;-86
2023/12/30 15:42:42;;;;;;;219.55;204.52;;;7.70;99.90;;;;;;12394716;28;20550;-87
2023/12/30 15:48:44;;;;;;;217.52;202.35;;;7.80;99.90;;;;;;12392983;28;20064;-87
2023/12/30 15:54:47;;;;;;;208.63;194.00;;;7.80;99.90;;;;;;12389630;28;20638;-87
2023/12/30 16:00:49;;;;;;;211.05;196.27;;;7.70;99.90;;;;;;12382692;28;20058;-87
2023/12/30 16:06:51;;;;;;;201.75;187.45;;;7.80;99.90;;;;;;12395471;28;20505;-87
2023/12/30 16:12:53;;;;;;;215.35;200.68;;;7.80;99.90;;;;;;12388754;28;20499;-86
2023/12/30 16:18:55;;;;;;;215.77;200.70;;;7.80;99.90;;;;;;12393151;28;20053;-87
2023/12/30 16:24:57;;;;;;;217.18;201.93;;;7.80;99.90;;;;;;12390613;28;20082;-87
2023/12/30 16:30:59;;;;;;;202.10;187.57;;;7.70;99.90;;;;;;12392436;28;20049;-87
2023/12/30 16:37:02;;;;;;;196.43;181.73;;;7.60;99.90;;;;;;12389149;28;20493;-86
2023/12/30 16:43:04;;;;;;;207.30;192.07;;;7.50;99.90;;;;;;12404071;28;20208;-88
2023/12/30 16:49:06;;;;;;;209.75;194.23;;;7.40;99.90;;;;;;12391251;28;20068;-87
2023/12/30 16:55:10;;;;;;;204.52;189.90;;;7.40;99.90;;;;;;12390553;28;20061;-87
2023/12/30 17:01:14;;;;;;;196.73;181.98;;;7.40;99.90;;;;;;12389271;28;20585;-87
2023/12/30 17:07:16;;;;;;;187.07;173.32;;;7.40;99.90;;;;;;12385132;28;20050;-86
2023/12/30 17:13:18;;;;;;;200.05;185.75;;;7.50;99.90;;;;;;12416242;28;20048;-86
2023/12/30 17:19:28;;;;;;;207.10;192.60;;;7.60;99.90;;;;;;12404658;28;20553;-87
2023/12/30 17:25:29;;;;;;;204.50;189.93;;;7.70;99.90;;;;;;12400252;28;21227;-87
2023/12/30 17:31:31;;;;;;;189.77;176.23;;;7.70;99.90;;;;;;12396886;28;20057;-88
2023/12/30 17:37:35;;;;;;;195.57;181.57;;;7.80;99.90;;;;;;12390863;28;20485;-87
2023/12/30 17:43:37;;;;;;;206.00;191.30;;;7.80;99.90;;;;;;12385479;28;20054;-87
2023/12/30 17:49:39;;;;;;;208.82;193.85;;;7.80;99.90;;;;;;12384353;28;20091;-87
2023/12/30 17:55:41;;;;;;;198.60;184.80;;;7.70;99.90;;;;;;12412476;28;20038;-81
2023/12/30 18:01:44;;;;;;;204.40;190.07;;;7.70;99.90;;;;;;12388358;28;20220;-81
2023/12/30 18:07:46;;;;;;;204.55;190.60;;;7.60;99.90;;;;;;12395143;28;20043;-81
2023/12/30 18:13:48;;;;;;;209.23;194.27;;;7.60;99.90;;;;;;12390100;28;20181;-81
2023/12/30 18:19:51;;;;;;;197.40;183.48;;;7.50;99.90;;;;;;12392315;28;20054;-82
2023/12/30 18:25:53;;;;;;;189.43;175.93;;;7.50;99.90;;;;;;12393402;28;20203;-80
2023/12/30 18:31:55;;;;;;;182.65;169.40;;;7.40;99.90;;;;;;12396970;28;20047;-81
2023/12/30 18:37:58;;;;;;;181.60;168.50;;;7.40;99.90;;;;;;12393004;28;20085;-81
2023/12/30 18:44:00;;;;;;;183.50;170.32;;;7.30;99.90;;;;;;12388554;28;20057;-81
2023/12/30 18:50:03;;;;;;;180.88;168.38;;;7.30;99.90;;;;;;12388818;28;20039;-81
2023/12/30 18:56:05;;;;;;;179.07;166.13;;;7.40;99.90;;;;;;12389979;28;20480;-87
2023/12/30 19:02:09;;;;;;;175.60;163.30;;;7.50;99.90;;;;;;12383442;28;20490;-87
2023/12/30 19:08:14;;;;;;;170.82;158.95;;;7.60;99.90;;;;;;12395927;28;20050;-79
2023/12/30 19:14:16;;;;;;;172.15;159.55;;;7.70;99.90;;;;;;12389099;28;20043;-82
2023/12/30 19:20:19;;;;;;;184.48;171.63;;;7.60;99.90;;;;;;12389800;28;20117;-80
2023/12/30 19:26:21;;;;;;;166.15;154.73;;;7.60;99.90;;;;;;12390368;28;20403;-81
2023/12/30 19:32:23;;;;;;;165.45;153.85;;;7.60;99.90;;;;;;12389450;28;20057;-80
2023/12/30 19:38:25;;;;;;;164.07;152.27;;;7.60;99.90;;;;;;12388264;28;20055;-81
2023/12/30 19:44:27;;;;;;;166.73;154.98;;;7.60;99.90;;;;;;12391599;28;20057;-80
2023/12/30 19:50:29;;;;;;;176.30;163.93;;;7.60;99.90;;;;;;12407518;28;20050;-81
2023/12/30 19:56:32;;;;;;;171.32;159.45;;;7.60;99.90;;;;;;12389517;28;20490;-80
2023/12/30 20:02:34;;;;;;;174.82;162.68;;;7.60;99.90;;;;;;12391998;28;20057;-80
2023/12/30 20:08:37;;;;;;;171.20;159.10;;;7.70;99.90;;;;;;12389810;28;20058;-80
2023/12/30 20:14:39;;;;;;;169.88;157.98;;;7.60;99.90;;;;;;12397218;28;22029;-85
2023/12/30 20:20:41;;;;;;;167.88;156.18;;;7.50;99.90;;;;;;12480237;28;20073;-84
2023/12/30 20:26:43;;;;;;;164.63;153.18;;;7.40;99.90;;;;;;12445273;28;20119;-84
2023/12/30 20:32:45;;;;;;;166.18;154.48;;;7.40;99.90;;;;;;12438306;28;20089;-84
2023/12/30 20:38:47;;;;;;;169.88;157.98;;;7.30;99.90;;;;;;12447046;28;20055;-83
2023/12/30 20:44:50;;;;;;;166.90;155.15;;;7.20;99.90;;;;;;12447625;22;20412;-35
2023/12/30 20:50:52;;;;;;;166.07;154.38;;;7.20;99.90;;;;;;12327602;28;20058;-35
2023/12/30 20:56:53;;;;;;;164.98;153.30;;;7.20;99.90;;;;;;12327881;28;20055;-36
2023/12/30 21:02:55;;;;;;;163.95;152.00;;;7.20;99.90;;;;;;12364667;28;20463;-35
2023/12/30 21:08:57;;;;;;;161.20;150.23;;;7.20;99.90;;;;;;12379282;28;20058;-35
2023/12/30 21:14:59;;;;;;;164.45;153.05;;;7.30;99.90;;;;;;12389716;28;20487;-35
2023/12/30 21:21:02;;;;;;;165.45;153.65;;;7.40;99.90;;;;;;12372509;28;20057;-35
2023/12/30 21:27:08;;;;;;;173.43;161.13;;;7.40;99.90;;;;;;12379261;28;20051;-35
2023/12/30 21:33:10;;;;;;;170.30;158.23;;;7.30;99.90;;;;;;12375849;28;20077;-35
2023/12/30 21:39:12;;;;;;;167.70;155.60;;;7.30;99.90;;;;;;12372824;28;20164;-35
2023/12/30 21:45:14;;;;;;;176.60;164.30;;;7.30;99.90;;;;;;12362059;28;20145;-35
2023/12/30 21:51:17;;;;;;;179.85;167.32;;;7.30;99.90;;;;;;12359561;28;20410;-35
2023/12/30 21:57:19;;;;;;;179.30;166.73;;;7.20;99.90;;;;;;12373550;28;20050;-36
2023/12/30 22:03:21;;;;;;;174.95;162.93;;;7.30;99.90;;;;;;12371755;28;20074;-36
2023/12/30 22:09:23;;;;;;;182.43;169.80;;;7.30;99.90;;;;;;12377746;28;20099;-34
2023/12/30 22:15:25;;;;;;;179.00;166.50;;;7.30;99.90;;;;;;12390376;28;20051;-36
2023/12/30 22:21:28;;;;;;;169.15;157.13;;;7.10;99.90;;;;;;12360453;28;20066;-35
2023/12/30 22:27:30;;;;;;;172.10;159.68;;;7.10;99.90;;;;;;12368320;28;20042;-36
2023/12/30 22:33:31;;;;;;;173.15;160.85;;;7.10;99.90;;;;;;12364247;28;20042;-35
2023/12/30 22:39:34;;;;;;;172.80;160.25;;;7.10;99.90;;;;;;12374053;28;20046;-35
2023/12/30 22:45:40;;;;;;;176.32;163.95;;;7.00;99.90;;;;;;12366760;28;20058;-36
2023/12/30 22:51:49;;;;;;;174.30;162.23;;;7.00;99.90;;;;;;12365162;28;20104;-36
2023/12/30 22:57:51;;;;;;;182.05;169.50;;;7.00;99.90;;;;;;12362342;28;20047;-35
2023/12/30 23:03:53;;;;;;;183.90;171.10;;;7.00;99.90;;;;;;12369516;28;20050;-36
2023/12/30 23:09:54;;;;;;;186.38;173.48;;;7.00;99.90;;;;;;12376857;28;20062;-36
2023/12/30 23:15:56;;;;;;;183.27;170.73;;;7.10;99.90;;;;;;12384769;28;20480;-36
2023/12/30 23:21:58;;;;;;;188.15;175.57;;;7.20;99.90;;;;;;12372242;28;20406;-36
2023/12/30 23:28:00;;;;;;;188.07;175.38;;;7.30;99.90;;;;;;12364193;28;20046;-36
2023/12/30 23:34:02;;;;;;;188.32;175.68;;;7.30;99.90;;;;;;12373903;28;20108;-36
2023/12/30 23:40:06;;;;;;;191.10;178.55;;;7.30;99.90;;;;;;12372400;28;20058;-36
2023/12/30 23:46:08;;;;;;;;;;;7.20;99.90;;;;;;12373187;28;20137;-35
2023/12/30 23:52:10;;;;;;;195.85;182.95;;;7.20;99.90;;;;;;12393968;28;19975;-35
2023/12/30 23:58:12;;;;;;;192.38;179.82;;;7.00;99.90;;;;;;12363668;28;20054;-36
